createdAt,value
2022-09-16T00:00:54.408Z,1.10
2022-09-16T00:03:22.402Z,1.20
2022-09-16T00:05:52.163Z,0.98
2022-09-16T00:08:20.807Z,1.00
2022-09-16T00:10:48.086Z,0.82
2022-09-16T00:13:15.704Z,1.25
2022-09-16T00:15:47.613Z,1.08
2022-09-16T00:18:14.839Z,1.33
2022-09-16T00:20:49.772Z,1.55
2022-09-16T00:23:17.224Z,1.15
2022-09-16T00:25:44.456Z,1.10
2022-09-16T00:28:11.657Z,1.10
2022-09-16T00:30:38.834Z,1.02
2022-09-16T00:33:06.077Z,1.02
2022-09-16T00:35:33.544Z,1.15
2022-09-16T00:38:00.744Z,1.40
2022-09-16T00:40:27.997Z,1.08
2022-09-16T00:42:55.251Z,1.30
2022-09-16T00:45:25.218Z,1.38
2022-09-16T00:47:58.127Z,1.42
2022-09-16T00:50:51.406Z,1.30
2022-09-16T00:53:23.740Z,1.00
2022-09-16T00:55:52.621Z,1.10
2022-09-16T00:58:32.244Z,1.38
2022-09-16T01:00:59.674Z,1.15
2022-09-16T01:03:28.985Z,1.30
2022-09-16T01:08:23.368Z,1.50
2022-09-16T01:10:50.604Z,1.48
2022-09-16T01:13:18.086Z,1.50
2022-09-16T01:16:04.672Z,1.50
2022-09-16T01:19:03.327Z,1.33
2022-09-16T01:21:44.477Z,1.60
2022-09-16T01:24:19.723Z,2.03
2022-09-16T01:27:06.848Z,1.67
2022-09-16T01:29:52.943Z,1.55
2022-09-16T01:32:34.997Z,1.70
2022-09-16T01:35:04.804Z,1.80
2022-09-16T01:37:50.497Z,1.48
2022-09-16T01:40:28.496Z,1.50
2022-09-16T01:43:08.203Z,1.63
2022-09-16T01:45:44.891Z,1.45
2022-09-16T01:48:23.259Z,1.30
2022-09-16T01:51:14.629Z,1.57
2022-09-16T01:53:55.003Z,1.35
2022-09-16T01:56:50.532Z,1.60
2022-09-16T01:59:41.472Z,1.40
2022-09-16T02:02:16.745Z,1.30
2022-09-16T02:04:48.755Z,1.40
2022-09-16T02:07:17.761Z,1.38
2022-09-16T02:09:49.627Z,1.88
2022-09-16T02:12:24.591Z,2.00
2022-09-16T02:14:57.261Z,1.63
2022-09-16T02:17:26.433Z,1.75
2022-09-16T02:20:01.563Z,1.60
2022-09-16T02:22:39.059Z,1.60
2022-09-16T02:25:08.434Z,1.60
2022-09-16T02:27:38.030Z,1.73
2022-09-16T02:30:11.252Z,1.65
2022-09-16T02:32:41.968Z,1.33
2022-09-16T02:35:10.801Z,1.67
2022-09-16T02:37:41.095Z,1.55
2022-09-16T02:40:13.598Z,1.52
2022-09-16T02:42:41.070Z,1.73
2022-09-16T02:45:08.923Z,1.55
2022-09-16T02:47:52.757Z,1.77
2022-09-16T02:50:35.329Z,2.10
2022-09-16T02:53:36.909Z,1.98
2022-09-16T02:56:28.949Z,1.98
2022-09-16T02:58:56.330Z,1.88
2022-09-16T03:01:24.380Z,2.00
2022-09-16T03:03:54.360Z,2.20
2022-09-16T03:06:22.441Z,2.00
2022-09-16T03:08:50.250Z,1.85
2022-09-16T03:11:38.640Z,1.88
2022-09-16T03:14:22.147Z,2.27
2022-09-16T03:17:08.290Z,1.55
2022-09-16T03:20:12.050Z,1.67
2022-09-16T03:22:48.448Z,2.08
2022-09-16T03:25:46.093Z,1.88
2022-09-16T03:28:24.630Z,1.40
2022-09-16T03:31:07.802Z,2.25
2022-09-16T03:33:53.261Z,1.88
2022-09-16T03:36:23.894Z,2.08
2022-09-16T03:38:53.747Z,2.45
2022-09-16T03:41:21.212Z,2.10
2022-09-16T03:44:03.061Z,2.00
2022-09-16T03:46:31.426Z,2.10
2022-09-16T03:48:59.123Z,2.25
2022-09-16T03:51:27.179Z,2.30
2022-09-16T03:53:55.175Z,1.80
2022-09-16T03:56:24.536Z,1.88
2022-09-16T04:01:21.565Z,1.67
2022-09-16T04:03:48.979Z,2.10
2022-09-16T04:06:16.456Z,1.88
2022-09-16T04:08:45.058Z,2.38
2022-09-16T04:11:12.357Z,2.83
2022-09-16T04:13:39.564Z,2.20
2022-09-16T04:16:07.009Z,1.88
2022-09-16T04:18:35.002Z,2.00
2022-09-16T04:21:03.214Z,2.13
2022-09-16T04:23:31.356Z,1.83
2022-09-16T04:26:00.179Z,2.10
2022-09-16T04:28:28.402Z,2.38
2022-09-16T04:30:59.188Z,2.00
2022-09-16T04:33:29.803Z,2.53
2022-09-16T04:36:12.787Z,2.00
2022-09-16T04:38:41.355Z,1.83
2022-09-16T04:41:10.115Z,2.00
2022-09-16T04:43:37.521Z,1.92
2022-09-16T04:46:08.643Z,2.35
2022-09-16T04:48:39.168Z,1.70
2022-09-16T04:51:12.265Z,1.80
2022-09-16T04:53:40.742Z,1.92
2022-09-16T04:56:16.073Z,2.00
2022-09-16T04:58:51.700Z,1.90
2022-09-16T05:01:21.563Z,1.83
2022-09-16T05:03:51.323Z,1.67
2022-09-16T05:06:24.538Z,1.98
2022-09-16T05:08:55.119Z,1.45
2022-09-16T05:11:27.951Z,1.80
2022-09-16T05:14:03.205Z,1.67
2022-09-16T05:16:30.949Z,1.70
2022-09-16T05:18:59.812Z,1.77
2022-09-16T05:21:29.215Z,1.63
2022-09-16T05:23:59.717Z,1.98
2022-09-16T05:26:29.359Z,1.63
2022-09-16T05:28:57.157Z,2.35
2022-09-16T05:31:32.261Z,1.60
2022-09-16T05:34:04.040Z,1.40
2022-09-16T05:36:33.712Z,1.60
2022-09-16T05:39:22.134Z,1.33
2022-09-16T05:41:52.631Z,1.50
2022-09-16T05:44:19.898Z,1.67
2022-09-16T05:46:47.288Z,1.98
2022-09-16T05:49:20.875Z,2.00
2022-09-16T05:51:49.503Z,1.95
2022-09-16T05:54:20.606Z,1.38
2022-09-16T05:56:49.396Z,1.60
2022-09-16T05:59:17.795Z,2.30
2022-09-16T06:01:45.697Z,1.70
2022-09-16T06:04:14.775Z,1.88
2022-09-16T06:06:44.595Z,2.00
2022-09-16T06:09:20.530Z,2.28
2022-09-16T06:11:54.477Z,1.67
2022-09-16T06:14:24.623Z,2.08
2022-09-16T06:16:52.163Z,1.55
2022-09-16T06:19:20.653Z,2.20
2022-09-16T06:21:48.662Z,2.17
2022-09-16T06:24:17.307Z,1.73
2022-09-16T06:26:45.596Z,1.63
2022-09-16T06:29:13.409Z,1.85
2022-09-16T06:31:41.171Z,1.90
2022-09-16T06:34:11.333Z,1.92
2022-09-16T06:36:44.731Z,2.10
2022-09-16T06:39:15.163Z,2.25
2022-09-16T06:41:44.911Z,2.17
2022-09-16T06:44:14.394Z,2.08
2022-09-16T06:46:42.683Z,1.70
2022-09-16T06:49:11.347Z,2.15
2022-09-16T06:51:39.119Z,2.03
2022-09-16T06:54:08.842Z,1.58
2022-09-16T06:56:41.306Z,1.40
2022-09-16T06:59:09.668Z,1.77
2022-09-16T07:01:37.602Z,1.40
2022-09-16T07:04:13.681Z,1.67
2022-09-16T07:09:29.135Z,1.30
2022-09-16T07:11:57.004Z,1.40
2022-09-16T07:14:30.929Z,1.25
2022-09-16T07:16:58.971Z,1.35
2022-09-16T07:19:27.155Z,1.42
2022-09-16T07:21:54.739Z,1.45
2022-09-16T07:24:24.784Z,1.70
2022-09-16T07:26:52.585Z,1.60
2022-09-16T07:29:24.180Z,1.63
2022-09-16T07:31:51.680Z,1.80
2022-09-16T07:34:20.242Z,1.23
2022-09-16T07:36:54.311Z,1.80
2022-09-16T07:39:21.722Z,1.80
2022-09-16T07:41:49.473Z,1.33
2022-09-16T07:44:18.536Z,1.65
2022-09-16T07:46:46.625Z,1.63
2022-09-16T07:49:14.934Z,1.73
2022-09-16T07:51:42.522Z,1.60
2022-09-16T07:54:15.309Z,1.73
2022-09-16T07:56:43.739Z,1.50
2022-09-16T07:59:18.403Z,1.87
2022-09-16T08:01:47.777Z,1.70
2022-09-16T08:04:15.337Z,1.80
2022-09-16T08:06:42.656Z,1.45
2022-09-16T08:09:27.340Z,1.65
2022-09-16T08:11:57.630Z,1.50
2022-09-16T08:14:28.301Z,1.50
2022-09-16T08:16:55.599Z,1.60
2022-09-16T08:19:24.466Z,1.48
2022-09-16T08:21:52.303Z,1.40
2022-09-16T08:24:19.753Z,1.50
2022-09-16T08:26:47.046Z,1.30
2022-09-16T08:29:14.564Z,1.30
2022-09-16T08:31:42.062Z,1.35
2022-09-16T08:34:09.315Z,1.40
2022-09-16T08:36:36.572Z,1.42
2022-09-16T08:39:04.430Z,1.33
2022-09-16T08:41:49.170Z,1.20
2022-09-16T08:44:31.979Z,1.27
2022-09-16T08:47:29.404Z,1.10
2022-09-16T08:49:59.082Z,1.30
2022-09-16T08:52:33.811Z,1.80
2022-09-16T08:55:13.459Z,1.13
2022-09-16T08:57:45.320Z,1.42
2022-09-16T09:00:17.532Z,2.17
2022-09-16T09:02:48.638Z,1.00
2022-09-16T09:05:23.858Z,1.35
2022-09-16T09:08:19.568Z,1.50
2022-09-16T09:10:57.458Z,1.20
2022-09-16T09:13:38.613Z,1.23
2022-09-16T09:16:32.169Z,1.30
2022-09-16T09:19:33.437Z,1.20
2022-09-16T09:22:27.455Z,1.45
2022-09-16T09:25:21.988Z,1.38
2022-09-16T09:27:55.576Z,1.40
2022-09-16T09:30:25.379Z,1.48
2022-09-16T09:33:02.555Z,1.55
2022-09-16T09:35:51.923Z,1.23
2022-09-16T09:38:46.870Z,1.48
2022-09-16T09:41:18.946Z,1.55
2022-09-16T09:43:56.648Z,1.20
2022-09-16T09:46:49.370Z,1.45
2022-09-16T09:49:35.077Z,1.20
2022-09-16T09:52:08.129Z,1.40
2022-09-16T09:54:36.833Z,1.48
2022-09-16T09:57:25.447Z,1.05
2022-09-16T10:00:13.325Z,1.30
2022-09-16T10:02:44.932Z,1.38
2022-09-16T10:05:25.045Z,1.27
2022-09-16T10:07:55.280Z,1.45
2022-09-16T10:10:24.432Z,1.77
2022-09-16T10:15:26.557Z,1.13
2022-09-16T10:17:54.779Z,1.23
2022-09-16T10:20:29.383Z,1.17
2022-09-16T10:23:03.738Z,1.40
2022-09-16T10:25:33.224Z,1.15
2022-09-16T10:28:05.578Z,1.17
2022-09-16T10:30:52.788Z,1.15
2022-09-16T10:33:30.492Z,1.30
2022-09-16T10:36:11.663Z,1.30
2022-09-16T10:38:43.862Z,1.48
2022-09-16T10:41:24.052Z,1.90
2022-09-16T10:43:59.889Z,1.42
2022-09-16T10:46:27.558Z,1.02
2022-09-16T10:49:16.873Z,1.00
2022-09-16T10:51:44.689Z,1.10
2022-09-16T10:54:24.933Z,0.98
2022-09-16T10:56:52.802Z,2.25
2022-09-16T10:59:20.050Z,1.23
2022-09-16T11:02:16.537Z,1.20
2022-09-16T11:05:02.879Z,1.10
2022-09-16T11:07:48.787Z,1.40
2022-09-16T11:10:25.458Z,1.10
2022-09-16T11:13:23.011Z,1.02
2022-09-16T11:16:11.724Z,0.93
2022-09-16T11:18:58.491Z,1.17
2022-09-16T11:22:05.273Z,1.40
2022-09-16T11:24:39.352Z,1.17
2022-09-16T11:27:31.727Z,1.35
2022-09-16T11:30:14.509Z,1.10
2022-09-16T11:36:04.221Z,0.73
2022-09-16T11:38:59.524Z,1.02
2022-09-16T11:41:42.423Z,1.27
2022-09-16T11:44:38.284Z,0.90
2022-09-16T11:47:29.933Z,0.70
2022-09-16T11:50:18.525Z,1.05
2022-09-16T11:53:27.071Z,0.95
2022-09-16T11:56:14.136Z,0.98
2022-09-16T11:59:15.511Z,1.13
2022-09-16T12:01:50.451Z,1.13
2022-09-16T12:04:26.990Z,1.23
2022-09-16T12:07:25.955Z,0.93
2022-09-16T12:10:01.865Z,1.63
2022-09-16T12:12:43.200Z,1.00
2022-09-16T12:15:28.750Z,1.17
2022-09-16T12:18:02.158Z,1.00
2022-09-16T12:20:36.956Z,1.02
2022-09-16T12:23:16.176Z,0.70
2022-09-16T12:26:17.056Z,1.52
2022-09-16T12:28:59.668Z,1.10
2022-09-16T12:31:58.296Z,1.20
2022-09-16T12:34:28.635Z,1.15
2022-09-16T12:37:03.810Z,1.00
2022-09-16T12:39:30.960Z,1.15
2022-09-16T12:42:31.958Z,1.00
2022-09-16T12:45:11.527Z,1.17
2022-09-16T12:47:55.556Z,1.27
2022-09-16T12:50:22.739Z,2.28
2022-09-16T12:53:11.672Z,0.85
2022-09-16T12:58:46.899Z,1.20
2022-09-16T13:01:22.496Z,0.80
2022-09-16T13:03:58.443Z,0.88
2022-09-16T13:06:32.281Z,1.17
2022-09-16T13:09:24.978Z,0.68
2022-09-16T13:14:54.664Z,0.93
2022-09-16T13:17:30.710Z,0.95
2022-09-16T13:20:12.618Z,0.88
2022-09-16T13:23:08.712Z,1.33
2022-09-16T13:25:59.516Z,0.75
2022-09-16T13:28:41.392Z,0.98
2022-09-16T13:31:15.391Z,0.80
2022-09-16T13:33:44.012Z,1.00
2022-09-16T13:36:16.896Z,1.20
2022-09-16T13:38:58.584Z,0.73
2022-09-16T13:41:40.520Z,1.02
2022-09-16T13:44:40.548Z,1.13
2022-09-16T13:47:14.544Z,0.98
2022-09-16T13:50:11.146Z,0.85
2022-09-16T13:52:39.559Z,1.10
2022-09-16T13:55:19.141Z,1.05
2022-09-16T13:57:58.490Z,0.63
2022-09-16T14:00:35.371Z,0.80
2022-09-16T14:03:17.975Z,0.63
2022-09-16T14:06:20.336Z,0.80
2022-09-16T14:09:02.053Z,1.02
2022-09-16T14:12:06.387Z,1.27
2022-09-16T14:14:50.351Z,0.80
2022-09-16T14:17:24.117Z,0.98
2022-09-16T14:19:57.311Z,1.08
2022-09-16T14:22:27.332Z,1.00
2022-09-16T14:25:05.875Z,1.27
2022-09-16T14:27:40.534Z,0.95
2022-09-16T14:30:18.063Z,1.05
2022-09-16T14:32:46.361Z,0.93
2022-09-16T14:35:23.301Z,1.47
2022-09-16T14:38:02.214Z,0.90
2022-09-16T14:40:30.616Z,1.90
2022-09-16T14:43:06.292Z,0.97
2022-09-16T14:45:35.082Z,1.38
2022-09-16T14:48:05.785Z,1.20
2022-09-16T14:50:38.144Z,1.05
2022-09-16T14:53:19.163Z,1.00
2022-09-16T14:55:49.509Z,0.88
2022-09-16T14:58:17.027Z,1.13
2022-09-16T15:01:10.347Z,1.00
2022-09-16T15:04:02.624Z,1.27
2022-09-16T15:06:34.154Z,1.20
2022-09-16T15:09:17.741Z,1.27
2022-09-16T15:12:03.948Z,0.98
2022-09-16T15:14:31.407Z,1.00
2022-09-16T15:17:01.193Z,1.00
2022-09-16T15:19:34.411Z,0.80
2022-09-16T15:22:02.556Z,1.17
2022-09-16T15:24:34.010Z,1.08
2022-09-16T15:27:02.061Z,0.82
2022-09-16T15:29:32.195Z,0.90
2022-09-16T15:32:20.918Z,1.20
2022-09-16T15:34:49.654Z,1.45
2022-09-16T15:37:35.815Z,0.93
2022-09-16T15:40:36.114Z,1.10
2022-09-16T15:43:15.223Z,0.90
2022-09-16T15:48:16.935Z,1.20
2022-09-16T15:50:54.459Z,1.25
2022-09-16T15:53:31.196Z,1.25
2022-09-16T15:56:17.093Z,1.00
2022-09-16T15:59:06.290Z,1.33
2022-09-16T16:01:53.662Z,1.60
2022-09-16T16:04:30.900Z,0.75
2022-09-16T16:07:06.047Z,1.17
2022-09-16T16:09:38.083Z,1.30
2022-09-16T16:12:10.288Z,1.60
2022-09-16T16:14:39.055Z,1.10
2022-09-16T16:17:21.135Z,1.00
2022-09-16T16:19:50.868Z,1.38
2022-09-16T16:22:32.523Z,1.27
2022-09-16T16:25:01.440Z,1.42
2022-09-16T16:27:31.025Z,1.73
2022-09-16T16:30:00.527Z,2.10
2022-09-16T16:32:28.335Z,1.30
2022-09-16T16:34:58.104Z,1.60
2022-09-16T16:37:45.470Z,1.23
2022-09-16T16:40:15.466Z,1.75
2022-09-16T16:42:44.035Z,1.17
2022-09-16T16:45:15.087Z,1.60
2022-09-16T16:47:44.015Z,1.40
2022-09-16T16:50:12.545Z,1.10
2022-09-16T16:52:40.221Z,1.23
2022-09-16T16:55:07.871Z,1.60
2022-09-16T16:57:35.161Z,1.60
2022-09-16T17:00:03.111Z,1.25
2022-09-16T17:02:30.609Z,1.83
2022-09-16T17:05:00.023Z,1.70
2022-09-16T17:07:28.093Z,1.63
2022-09-16T17:09:57.487Z,1.03
2022-09-16T17:14:57.873Z,1.15
2022-09-16T17:17:29.107Z,1.17
2022-09-16T17:19:58.737Z,1.13
2022-09-16T17:22:25.932Z,0.95
2022-09-16T17:24:53.324Z,1.00
2022-09-16T17:27:20.744Z,1.13
2022-09-16T17:29:48.949Z,1.38
2022-09-16T17:32:16.847Z,1.13
2022-09-16T17:37:38.649Z,1.10
2022-09-16T17:40:08.521Z,1.40
2022-09-16T17:42:36.189Z,1.65
2022-09-16T17:45:06.254Z,1.27
2022-09-16T17:47:36.539Z,1.20
2022-09-16T17:50:06.724Z,1.10
2022-09-16T17:55:02.301Z,1.13
2022-09-16T17:57:33.367Z,1.10
2022-09-16T18:00:01.021Z,1.73
2022-09-16T18:02:28.454Z,1.27
2022-09-16T18:04:55.948Z,1.25
2022-09-16T18:07:24.638Z,1.27
2022-09-16T18:09:52.014Z,1.25
2022-09-16T18:12:19.482Z,1.75
2022-09-16T18:14:46.951Z,1.08
2022-09-16T18:17:14.376Z,1.35
2022-09-16T18:19:42.103Z,1.20
2022-09-16T18:22:09.611Z,1.75
2022-09-16T18:24:36.794Z,1.48
2022-09-16T18:27:04.024Z,1.63
2022-09-16T18:29:31.573Z,1.85
2022-09-16T18:31:59.651Z,1.30
2022-09-16T18:34:31.206Z,1.73
2022-09-16T18:37:00.608Z,2.78
2022-09-16T18:39:27.900Z,1.58
2022-09-16T18:41:57.663Z,5.32
2022-09-16T18:44:25.132Z,3.88
2022-09-16T18:46:53.285Z,2.35
2022-09-16T18:49:29.077Z,1.40
2022-09-16T18:51:56.638Z,1.60
2022-09-16T18:54:28.462Z,1.63
2022-09-16T18:56:57.146Z,1.42
2022-09-16T18:59:28.681Z,1.77
2022-09-16T19:01:59.228Z,1.25
2022-09-16T19:04:29.454Z,1.60
2022-09-16T19:07:00.294Z,1.13
2022-09-16T19:09:27.837Z,1.35
2022-09-16T19:11:56.175Z,1.23
2022-09-16T19:14:27.272Z,2.70
2022-09-16T19:16:54.966Z,1.30
2022-09-16T19:19:22.809Z,1.38
2022-09-16T19:21:50.094Z,0.90
2022-09-16T19:24:23.392Z,1.45
2022-09-16T19:26:52.744Z,1.30
2022-09-16T19:29:20.571Z,1.33
2022-09-16T19:31:49.329Z,1.60
2022-09-16T19:34:17.146Z,2.17
2022-09-16T19:36:44.515Z,1.52
2022-09-16T19:39:13.279Z,1.58
2022-09-16T19:41:41.859Z,1.23
2022-09-16T19:44:12.903Z,1.40
2022-09-16T19:46:42.494Z,1.60
2022-09-16T19:49:15.134Z,1.95
2022-09-16T19:51:42.976Z,1.77
2022-09-16T19:54:10.401Z,2.40
2022-09-16T19:56:37.759Z,2.10
2022-09-16T19:59:04.983Z,2.40
2022-09-16T20:01:34.236Z,1.85
2022-09-16T20:06:34.606Z,2.00
2022-09-16T20:09:03.557Z,2.22
2022-09-16T20:11:32.973Z,3.22
2022-09-16T20:14:03.077Z,2.65
2022-09-16T20:16:35.800Z,2.28
2022-09-16T20:19:08.494Z,2.63
2022-09-16T20:21:36.241Z,2.50
2022-09-16T20:24:05.848Z,2.50
2022-09-16T20:26:35.680Z,1.80
2022-09-16T20:29:03.920Z,1.90
2022-09-16T20:31:33.815Z,1.73
2022-09-16T20:34:01.365Z,1.80
2022-09-16T20:36:32.519Z,2.00
2022-09-16T20:39:00.622Z,1.65
2022-09-16T20:41:32.481Z,1.60
2022-09-16T20:44:00.256Z,1.67
2022-09-16T20:46:32.942Z,1.40
2022-09-16T20:49:01.741Z,1.70
2022-09-16T20:51:31.636Z,1.58
2022-09-16T20:54:08.457Z,1.45
2022-09-16T20:56:39.118Z,1.67
2022-09-16T20:59:10.970Z,1.33
2022-09-16T21:01:40.000Z,2.05
2022-09-16T21:04:11.172Z,1.85
2022-09-16T21:06:39.884Z,1.83
2022-09-16T21:09:10.194Z,2.60
2022-09-16T21:11:40.847Z,2.38
2022-09-16T21:14:08.609Z,1.92
2022-09-16T21:16:38.274Z,2.63
2022-09-16T21:19:11.017Z,1.98
2022-09-16T21:21:41.420Z,1.80
2022-09-16T21:24:09.912Z,1.30
2022-09-16T21:26:39.948Z,1.37
2022-09-16T21:29:11.213Z,1.48
2022-09-16T21:31:40.932Z,1.60
2022-09-16T21:34:15.264Z,1.02
2022-09-16T21:36:44.478Z,1.40
2022-09-16T21:39:14.856Z,1.42
2022-09-16T21:41:43.095Z,1.52
2022-09-16T21:44:12.438Z,2.15
2022-09-16T21:49:18.119Z,1.40
2022-09-16T21:51:46.372Z,1.10
2022-09-16T21:54:19.106Z,1.30
2022-09-16T21:56:47.454Z,1.42
2022-09-16T21:59:15.078Z,1.45
2022-09-16T22:01:42.366Z,1.58
2022-09-16T22:04:15.126Z,1.00
2022-09-16T22:06:42.809Z,1.02
2022-09-16T22:09:10.970Z,1.00
2022-09-16T22:11:40.725Z,1.33
2022-09-16T22:14:08.341Z,1.13
2022-09-16T22:16:37.454Z,1.85
2022-09-16T22:19:11.247Z,1.05
2022-09-16T22:21:41.345Z,1.20
2022-09-16T22:24:09.617Z,1.00
2022-09-16T22:26:37.566Z,1.08
2022-09-16T22:29:06.408Z,1.20
2022-09-16T22:31:34.661Z,1.05
2022-09-16T22:34:02.325Z,1.70
2022-09-16T22:36:31.354Z,1.20
2022-09-16T22:39:20.592Z,1.33
2022-09-16T22:44:15.698Z,1.00
2022-09-16T22:46:47.515Z,1.30
2022-09-16T22:49:15.601Z,1.60
2022-09-16T22:51:43.115Z,1.25
2022-09-16T22:54:12.515Z,1.38
2022-09-16T22:56:39.723Z,1.10
2022-09-16T22:59:08.247Z,1.33
2022-09-16T23:01:38.265Z,1.33
2022-09-16T23:04:06.995Z,1.63
2022-09-16T23:06:35.038Z,1.73
2022-09-16T23:09:02.471Z,1.38
2022-09-16T23:11:32.416Z,2.13
2022-09-16T23:14:01.086Z,1.48
2022-09-16T23:16:31.081Z,1.40
2022-09-16T23:19:00.089Z,1.38
2022-09-16T23:21:27.740Z,1.23
2022-09-16T23:23:57.813Z,1.25
2022-09-16T23:26:28.079Z,1.17
2022-09-16T23:28:56.623Z,1.45
2022-09-16T23:31:29.303Z,1.10
2022-09-16T23:33:57.117Z,1.30
2022-09-16T23:36:26.209Z,1.05
2022-09-16T23:38:54.483Z,1.02
2022-09-16T23:41:24.658Z,1.38
2022-09-16T23:43:52.004Z,1.13
2022-09-16T23:46:23.157Z,1.00
2022-09-16T23:48:53.733Z,1.20
2022-09-16T23:51:26.017Z,1.23
2022-09-16T23:53:56.414Z,1.38
2022-09-16T23:56:23.888Z,1.00
2022-09-16T23:58:52.068Z,1.02
